Skip Navigation Links Skip Navigation Links

Current Weather

Desert Rock, Mercury, Nev.

For information only: do not use for flight planning or navigation.
Latest weather
Observation time Thursday, November 21, 2019 1:53 PM PST
Local time Thursday, November 21, 2019 2:27 PM PST
Flight conditions Visual Meteorological Conditions
Winds
Wind direction Southwest (220°)
Wind speed 3 mph
Visibility 10 mi.
Sky condition
Ceiling unlimited
Cloud layer few clouds 2,900 ft.
Temperature 49°F
Dewpoint 39°F
Altimeter 29.89 in.Hg
Derived measurements
Relative humidity 69%
Wind chill 48°F
Density altitude 2799 ft.
Sea-level pressure 29.85 in.Hg
Remarks
Fully automated report.
Automated weather observing station with precipitation discriminator.
METAR KDRA 212153Z AUTO 22003KT 10SM FEW029 09/04 A2989 RMK AO2 SLP109 T00940039

Settings

Location code

InnerDrive.Weather 4.0.6770.0 Release CLR 4.0.30319.42000
Copyright ©2018 Inner Drive Technology. All rights reserved. Portions Copyright ©1986-2018 David Braverman.

Find weather

Site navigation


Skip Navigation Links

Place info

Page info

PayPal - The safer, easier way to pay online!

Return home.

Copyright ©2019 Inner Drive Technology. Purveyors of fine, hand-crafted computer software. Page printed 2019-11-21T22:27:18 UTC.